Time;durP1;ratioP1;P1;durP2;ratioP2;P2;SDS_P1;SDS_P2;PMS_P1;PMS_P2;Temp;Humidity;BMP_temperature;BMP_pressure;BME280_temperature;BME280_humidity;BME280_pressure;Samples;Min_cycle;Max_cycle;Signal;HPM_P1;HPM_P2
2023/05/01 04:01:20;;;;;;;0.60;0.10;;;12.30;99.90;;;;;;5473726;23;20471;-76
2023/05/01 04:03:48;;;;;;;0.60;0.10;;;12.20;99.90;;;;;;4911647;29;20455;-76
2023/05/01 04:06:16;;;;;;;0.60;0.30;;;12.10;99.90;;;;;;4917971;29;20504;-77
2023/05/01 04:08:44;;;;;;;0.60;0.10;;;12.10;99.90;;;;;;4918679;29;20482;-77
2023/05/01 04:11:12;;;;;;;0.60;0.20;;;12.10;99.90;;;;;;4919584;29;20479;-77
2023/05/01 04:13:40;;;;;;;0.60;0.10;;;12.00;99.90;;;;;;4918263;29;20448;-77
2023/05/01 04:16:08;;;;;;;2.60;0.67;;;;;;;;;;4954008;23;20433;-76
2023/05/01 04:18:37;;;;;;;1.30;0.97;;;12.00;99.90;;;;;;4911943;29;20459;-76
2023/05/01 04:21:05;;;;;;;0.60;0.10;;;11.90;99.90;;;;;;4916754;29;20446;-77
2023/05/01 04:23:33;;;;;;;0.60;0.10;;;11.90;99.90;;;;;;4917016;29;20441;-76
2023/05/01 04:26:02;;;;;;;0.70;0.20;;;11.90;99.90;;;;;;4913995;29;20450;-77
2023/05/01 04:28:30;;;;;;;0.60;0.10;;;11.90;99.90;;;;;;4920587;29;20449;-77
2023/05/01 04:30:58;;;;;;;0.60;0.10;;;11.90;99.90;;;;;;4919023;29;20455;-76
2023/05/01 04:33:27;;;;;;;0.70;0.37;;;11.90;99.90;;;;;;4924751;29;20454;-78
2023/05/01 04:35:56;;;;;;;0.70;0.30;;;11.90;99.90;;;;;;4920870;29;20446;-77
2023/05/01 04:38:24;;;;;;;0.60;0.10;;;11.80;99.90;;;;;;4922490;29;20451;-77
2023/05/01 04:40:52;;;;;;;0.60;0.10;;;11.80;99.90;;;;;;4924661;29;20479;-77
2023/05/01 04:43:20;;;;;;;0.60;0.10;;;11.80;99.90;;;;;;4923259;29;20485;-77
2023/05/01 04:45:48;;;;;;;0.67;0.17;;;11.80;99.90;;;;;;4920570;29;20977;-77
2023/05/01 04:48:15;;;;;;;0.60;0.20;;;11.80;99.90;;;;;;4921685;29;20965;-77
2023/05/01 04:50:43;;;;;;;1.53;1.13;;;11.90;99.90;;;;;;4921427;29;20890;-77
2023/05/01 04:53:13;;;;;;;0.60;0.10;;;11.90;99.90;;;;;;4920416;29;20454;-77
2023/05/01 04:55:41;;;;;;;0.60;0.10;;;11.80;99.90;;;;;;4923538;29;20445;-76
2023/05/01 04:58:08;;;;;;;0.60;0.10;;;11.80;99.90;;;;;;4926263;29;20939;-77
2023/05/01 05:00:36;;;;;;;0.93;0.83;;;11.90;99.90;;;;;;4926174;29;20967;-76
2023/05/01 05:03:04;;;;;;;0.60;0.10;;;11.90;99.90;;;;;;4920903;29;20457;-77
2023/05/01 05:05:32;;;;;;;0.60;0.10;;;11.90;99.90;;;;;;4929475;29;20456;-77
2023/05/01 05:08:01;;;;;;;0.60;0.10;;;12.00;99.90;;;;;;4929812;29;20498;-77
2023/05/01 05:10:30;;;;;;;0.60;0.10;;;12.00;99.90;;;;;;4925977;29;20979;-77
2023/05/01 05:12:58;;;;;;;0.60;0.10;;;12.00;99.90;;;;;;4930497;29;20538;-77
2023/05/01 05:15:26;;;;;;;0.60;0.10;;;12.00;99.90;;;;;;4933462;29;20449;-77
2023/05/01 05:17:54;;;;;;;0.60;0.10;;;12.10;99.90;;;;;;4931313;29;20478;-77
2023/05/01 05:20:23;;;;;;;0.60;0.10;;;12.10;99.90;;;;;;4929021;29;20448;-77
2023/05/01 05:22:51;;;;;;;0.73;0.53;;;12.10;99.90;;;;;;4932249;29;20453;-77
2023/05/01 05:25:19;;;;;;;0.60;0.10;;;12.10;99.90;;;;;;4934429;29;20504;-76
2023/05/01 05:27:48;;;;;;;0.60;0.20;;;;;;;;;;4935228;29;20487;-76
2023/05/01 05:30:17;;;;;;;0.60;0.10;;;;;;;;;;4937863;29;20793;-76
2023/05/01 05:32:47;;;;;;;0.60;0.10;;;12.20;99.90;;;;;;4932959;29;20520;-77
2023/05/01 05:35:15;;;;;;;0.60;0.10;;;12.20;99.90;;;;;;4933729;29;20466;-77
2023/05/01 05:37:43;;;;;;;0.60;0.10;;;12.20;99.90;;;;;;4934097;29;20447;-76
2023/05/01 05:40:13;;;;;;;0.60;0.10;;;12.30;99.90;;;;;;4931778;29;20442;-77
2023/05/01 05:42:41;;;;;;;0.60;0.40;;;12.40;99.90;;;;;;4933553;29;20511;-77
2023/05/01 05:45:11;;;;;;;0.60;0.20;;;;;;;;;;4939359;29;20454;-76
2023/05/01 05:47:39;;;;;;;0.80;0.43;;;;;;;;;;4930329;29;20494;-76
2023/05/01 05:50:08;;;;;;;0.60;0.10;;;12.50;99.90;;;;;;4942123;29;20449;-76
2023/05/01 05:52:36;;;;;;;0.60;0.10;;;12.50;99.90;;;;;;4936513;29;20479;-76
2023/05/01 05:55:05;;;;;;;0.60;0.10;;;12.60;99.90;;;;;;4926643;29;20464;-77
2023/05/01 05:57:36;;;;;;;0.60;0.10;;;12.60;99.90;;;;;;4922316;29;20472;-76
2023/05/01 06:00:05;;;;;;;0.60;0.10;;;12.70;99.90;;;;;;4914073;29;20447;-77
2023/05/01 06:02:34;;;;;;;0.60;0.10;;;12.80;99.90;;;;;;4914391;29;20466;-76
2023/05/01 06:05:02;;;;;;;0.60;0.10;;;12.80;99.90;;;;;;4910867;29;20951;-76
2023/05/01 06:07:30;;;;;;;0.60;0.10;;;12.80;99.90;;;;;;4921323;29;20483;-76
2023/05/01 06:10:02;;;;;;;0.60;0.10;;;12.90;99.90;;;;;;4921351;29;20446;-77
2023/05/01 06:12:31;;;;;;;0.60;0.10;;;13.00;99.90;;;;;;4921860;29;20488;-77
2023/05/01 06:15:00;;;;;;;0.60;0.10;;;12.90;99.90;;;;;;4927015;29;20447;-77
2023/05/01 06:17:27;;;;;;;0.60;0.10;;;12.90;99.90;;;;;;4940545;29;20551;-76
2023/05/01 06:19:57;;;;;;;0.60;0.30;;;12.90;99.90;;;;;;4929624;29;20487;-76
2023/05/01 06:22:25;;;;;;;0.60;0.10;;;12.90;99.90;;;;;;4918333;29;20456;-77
2023/05/01 06:24:53;;;;;;;0.60;0.10;;;12.90;99.90;;;;;;4910751;29;20469;-77
2023/05/01 06:27:21;;;;;;;0.60;0.10;;;13.00;99.90;;;;;;4910989;29;20485;-77
2023/05/01 06:29:50;;;;;;;0.60;0.10;;;;;;;;;;4911713;29;20505;-77
2023/05/01 06:32:17;;;;;;;0.60;0.10;;;13.10;99.90;;;;;;4911821;29;20462;-77
2023/05/01 06:34:45;;;;;;;0.60;0.10;;;13.20;99.90;;;;;;4913444;29;20465;-77
2023/05/01 06:37:14;;;;;;;0.60;0.10;;;13.20;99.90;;;;;;4911553;29;20972;-77
2023/05/01 06:39:42;;;;;;;0.60;0.10;;;13.30;99.90;;;;;;4921268;29;20452;-77
2023/05/01 06:42:14;;;;;;;0.60;0.10;;;13.40;99.90;;;;;;4927135;29;20464;-77
2023/05/01 06:44:42;;;;;;;0.60;0.10;;;13.40;99.90;;;;;;4939742;29;20439;-77
2023/05/01 06:47:10;;;;;;;0.60;0.10;;;13.50;99.90;;;;;;4938631;29;20461;-77
2023/05/01 06:49:38;;;;;;;0.60;0.27;;;13.60;99.90;;;;;;4933086;29;20479;-76
2023/05/01 06:52:06;;;;;;;0.60;0.10;;;13.60;99.90;;;;;;4919764;29;20453;-77
2023/05/01 06:54:35;;;;;;;0.60;0.20;;;13.60;99.90;;;;;;4903267;29;20478;-76
2023/05/01 06:57:03;;;;;;;0.60;0.10;;;13.70;99.90;;;;;;4902901;29;20476;-75
2023/05/01 06:59:31;;;;;;;0.70;0.20;;;13.70;99.90;;;;;;4904447;29;20941;-77
2023/05/01 07:01:58;;;;;;;0.60;0.20;;;13.80;99.90;;;;;;4904784;29;20455;-77
2023/05/01 07:04:26;;;;;;;0.60;0.20;;;13.80;99.90;;;;;;4913216;29;20445;-77
2023/05/01 07:06:54;;;;;;;0.60;0.10;;;13.70;99.90;;;;;;4916399;29;20458;-77
2023/05/01 07:09:22;;;;;;;0.60;0.10;;;13.80;99.90;;;;;;4906842;29;20510;-77
2023/05/01 07:11:51;;;;;;;0.60;0.10;;;13.80;99.90;;;;;;4912155;29;20458;-77
2023/05/01 07:14:19;;;;;;;0.60;0.10;;;13.80;99.90;;;;;;4922763;29;20490;-76
2023/05/01 07:16:47;;;;;;;0.60;0.10;;;13.80;99.90;;;;;;4936819;29;20483;-77
2023/05/01 07:19:15;;;;;;;0.60;0.10;;;13.80;99.90;;;;;;4938738;29;20992;-76
2023/05/01 07:21:43;;;;;;;0.60;0.10;;;13.90;99.90;;;;;;4933790;29;20452;-77
2023/05/01 07:24:11;;;;;;;0.60;0.20;;;13.90;99.90;;;;;;4933511;29;20554;-76
2023/05/01 07:26:39;;;;;;;0.60;0.10;;;14.10;99.90;;;;;;4934032;29;20468;-76
2023/05/01 07:29:10;;;;;;;0.60;0.10;;;14.20;99.90;;;;;;4926978;29;20508;-77
2023/05/01 07:31:40;;;;;;;0.60;0.10;;;14.20;99.90;;;;;;4920542;29;20455;-77
2023/05/01 07:34:08;;;;;;;0.60;0.10;;;14.20;99.90;;;;;;4919284;29;20453;-77
2023/05/01 07:36:37;;;;;;;0.60;0.10;;;;;;;;;;4919660;29;20483;-77
2023/05/01 07:39:05;;;;;;;0.60;0.10;;;14.40;99.90;;;;;;4917492;29;20446;-77
2023/05/01 07:41:33;;;;;;;1.53;1.43;;;14.60;99.90;;;;;;4918590;29;20463;-76
2023/05/01 07:44:01;;;;;;;0.60;0.10;;;14.60;99.90;;;;;;4922553;29;20449;-77
2023/05/01 07:46:30;;;;;;;0.60;0.10;;;14.70;99.90;;;;;;4910224;29;20480;-77
2023/05/01 07:48:58;;;;;;;0.60;0.10;;;14.70;99.90;;;;;;4909547;29;20490;-77
2023/05/01 07:51:26;;;;;;;0.60;0.10;;;14.80;99.90;;;;;;4914489;29;20460;-76
2023/05/01 07:53:54;;;;;;;0.60;0.10;;;14.90;99.90;;;;;;4912097;29;20464;-78
2023/05/01 07:56:22;;;;;;;0.60;0.20;;;14.90;99.90;;;;;;4923425;29;20492;-76
2023/05/01 07:58:50;;;;;;;0.60;0.10;;;14.90;99.90;;;;;;4927436;29;20568;-76
2023/05/01 08:01:21;;;;;;;0.60;0.10;;;14.90;99.90;;;;;;4931418;29;20457;-77
2023/05/01 08:03:53;;;;;;;0.60;0.10;;;;;;;;;;4932570;29;20884;-78
2023/05/01 08:06:27;;;;;;;0.60;0.10;;;15.10;99.90;;;;;;4928813;29;20944;-76
2023/05/01 08:08:55;;;;;;;0.60;0.10;;;;;;;;;;4931492;29;20482;-75
2023/05/01 08:11:23;;;;;;;3.40;3.20;;;15.30;99.90;;;;;;4922564;29;20531;-77
2023/05/01 08:13:51;;;;;;;0.97;0.93;;;15.30;99.90;;;;;;4928942;29;20486;-77
2023/05/01 08:16:19;;;;;;;0.60;0.10;;;15.30;99.90;;;;;;4917923;29;20504;-76
2023/05/01 08:18:49;;;;;;;0.60;0.10;;;;;;;;;;4919232;29;20912;-77
2023/05/01 08:21:18;;;;;;;0.70;0.30;;;15.50;99.90;;;;;;4922004;29;20536;-76
2023/05/01 08:23:46;;;;;;;0.60;0.10;;;15.50;99.90;;;;;;4928738;29;20948;-77
2023/05/01 08:26:15;;;;;;;0.60;0.10;;;15.50;99.90;;;;;;4923149;29;20484;-78
2023/05/01 08:28:43;;;;;;;2.00;1.90;;;15.60;99.90;;;;;;4929400;29;20489;-77
2023/05/01 08:31:13;;;;;;;0.60;0.10;;;;;;;;;;4918553;29;20952;-77
2023/05/01 08:33:43;;;;;;;0.60;0.10;;;;;;;;;;4930456;29;20490;-77
2023/05/01 08:36:11;;;;;;;0.60;0.10;;;;;;;;;;4925114;29;20468;-77
2023/05/01 08:38:41;;;;;;;0.60;0.10;;;;;;;;;;4938239;29;20471;-78
2023/05/01 08:41:10;;;;;;;0.60;0.10;;;;;;;;;;4936413;29;20458;-77
2023/05/01 08:43:41;;;;;;;0.60;0.10;;;15.60;99.90;;;;;;4929740;29;20541;-77
2023/05/01 08:46:10;;;;;;;0.60;0.10;;;15.70;99.90;;;;;;4925696;29;20900;-78
2023/05/01 08:48:42;;;;;;;0.60;0.20;;;15.70;99.90;;;;;;4906103;29;20510;-77
2023/05/01 08:51:11;;;;;;;0.60;0.20;;;15.70;99.90;;;;;;4907511;29;20482;-77
2023/05/01 08:53:44;;;;;;;0.60;0.10;;;15.80;99.90;;;;;;4904927;29;20469;-77
2023/05/01 08:56:14;;;;;;;0.60;0.10;;;15.90;99.90;;;;;;4902761;29;20468;-78
2023/05/01 08:58:45;;;;;;;0.60;0.10;;;16.00;99.90;;;;;;4902651;29;20461;-77
2023/05/01 09:01:15;;;;;;;0.60;0.10;;;16.00;99.90;;;;;;4902900;29;20525;-79
2023/05/01 09:03:44;;;;;;;0.60;0.20;;;16.10;99.90;;;;;;4902082;29;20480;-78
2023/05/01 09:06:12;;;;;;;0.60;0.30;;;16.10;99.90;;;;;;4902404;29;20477;-76
2023/05/01 09:08:42;;;;;;;0.60;0.10;;;;;;;;;;4903817;29;21004;-80
2023/05/01 09:11:15;;;;;;;0.60;0.10;;;16.20;99.90;;;;;;4914893;29;20471;-78
2023/05/01 09:13:45;;;;;;;0.60;0.10;;;16.10;99.90;;;;;;4921037;29;20451;-78
2023/05/01 09:16:13;;;;;;;0.60;0.20;;;;;;;;;;4923880;29;20476;-81
2023/05/01 09:18:42;;;;;;;0.90;0.20;;;16.40;99.90;;;;;;4922787;29;20462;-77
2023/05/01 09:21:11;;;;;;;0.60;0.20;;;16.50;99.90;;;;;;4921569;29;20459;-78
2023/05/01 09:23:39;;;;;;;0.60;0.10;;;16.50;99.90;;;;;;4924933;29;20450;-79
2023/05/01 09:26:08;;;;;;;0.60;0.10;;;16.60;99.90;;;;;;4922075;29;20501;-79
2023/05/01 09:28:41;;;;;;;0.60;0.10;;;16.70;99.90;;;;;;4922290;29;20455;-78
2023/05/01 09:31:22;;;;;;;0.60;0.10;;;16.70;99.90;;;;;;4927568;29;20519;-80
2023/05/01 09:33:55;;;;;;;0.60;0.10;;;16.70;99.90;;;;;;4923907;29;20458;-79
2023/05/01 09:36:24;;;;;;;0.60;0.10;;;16.70;99.90;;;;;;4924141;29;20477;-78
2023/05/01 09:38:54;;;;;;;0.60;0.10;;;16.80;99.90;;;;;;4923126;29;20462;-79
2023/05/01 09:41:25;;;;;;;0.60;0.10;;;16.80;99.90;;;;;;4923804;29;20449;-80
2023/05/01 09:43:53;;;;;;;2.10;0.77;;;17.00;99.90;;;;;;4920923;29;20453;-78
2023/05/01 09:46:23;;;;;;;0.60;0.10;;;17.10;99.90;;;;;;4922007;29;20476;-77
2023/05/01 09:48:59;;;;;;;0.60;0.10;;;17.10;99.90;;;;;;4921942;29;20518;-77
2023/05/01 09:51:28;;;;;;;0.60;0.20;;;;;;;;;;4923034;29;20448;-79
2023/05/01 09:53:57;;;;;;;0.60;0.10;;;17.10;99.90;;;;;;4923229;29;21003;-77
2023/05/01 09:56:28;;;;;;;0.60;0.10;;;17.20;99.90;;;;;;4923303;29;20472;-77
2023/05/01 09:59:00;;;;;;;0.60;0.30;;;17.10;99.90;;;;;;4922173;29;20480;-79
2023/05/01 10:01:39;;;;;;;0.60;0.10;;;17.20;99.90;;;;;;4921409;29;20448;-80
2023/05/01 10:04:08;;;;;;;0.60;0.10;;;17.30;99.90;;;;;;4921214;29;20945;-78
2023/05/01 10:06:36;;;;;;;0.60;0.10;;;17.20;99.90;;;;;;4920368;29;20472;-77
2023/05/01 10:09:09;;;;;;;0.60;0.10;;;17.30;99.90;;;;;;4918932;29;20504;-76
2023/05/01 10:11:49;;;;;;;0.60;0.10;;;17.40;99.90;;;;;;4919474;29;20454;-77
2023/05/01 10:14:17;;;;;;;0.60;0.10;;;17.40;99.90;;;;;;4924713;29;20455;-79
2023/05/01 10:16:45;;;;;;;0.60;0.10;;;17.40;99.90;;;;;;4927695;29;20474;-73
2023/05/01 10:19:14;;;;;;;0.70;0.40;;;;;;;;;;4923108;29;20464;-74
2023/05/01 10:21:42;;;;;;;0.60;0.20;;;17.50;99.90;;;;;;4923393;29;20449;-76
2023/05/01 10:24:10;;;;;;;0.60;0.20;;;17.60;99.90;;;;;;4920507;29;20452;-78
2023/05/01 10:26:38;;;;;;;0.60;0.10;;;;;;;;;;4923017;29;20497;-77
2023/05/01 10:29:09;;;;;;;0.60;0.20;;;17.80;99.90;;;;;;4923002;29;20511;-78
2023/05/01 10:31:37;;;;;;;0.60;0.10;;;;;;;;;;4919789;29;20481;-78
2023/05/01 10:34:10;;;;;;;0.80;0.57;;;17.90;99.90;;;;;;4922989;29;20445;-78
2023/05/01 10:36:43;;;;;;;0.60;0.10;;;18.00;99.90;;;;;;4919723;29;20476;-75
2023/05/01 10:39:30;;;;;;;0.60;0.13;;;18.10;99.90;;;;;;4917971;29;20457;-75
2023/05/01 10:42:03;;;;;;;0.60;0.10;;;18.10;99.90;;;;;;4918085;29;20511;-75
2023/05/01 10:44:34;;;;;;;0.60;0.10;;;18.20;99.90;;;;;;4917159;29;20535;-76
2023/05/01 10:47:40;;;;;;;0.60;0.10;;;18.20;99.90;;;;;;4916912;29;20490;-76
2023/05/01 10:50:09;;;;;;;0.60;0.20;;;18.30;99.90;;;;;;4918422;29;21028;-77
2023/05/01 10:53:10;;;;;;;0.60;0.10;;;18.50;99.90;;;;;;4921096;29;20455;-77
2023/05/01 10:55:42;;;;;;;0.60;0.17;;;18.50;99.90;;;;;;4927709;29;20460;-76
2023/05/01 10:58:10;;;;;;;0.60;0.20;;;18.60;99.90;;;;;;4925580;29;20487;-75
2023/05/01 11:00:39;;;;;;;0.80;0.40;;;18.60;99.90;;;;;;4926204;29;20441;-78
2023/05/01 11:03:34;;;;;;;0.60;0.10;;;18.70;99.90;;;;;;4919498;29;20466;-77
2023/05/01 11:06:06;;;;;;;0.70;0.20;;;18.70;99.90;;;;;;4902872;29;20445;-75
2023/05/01 11:08:37;;;;;;;0.60;0.10;;;18.70;99.90;;;;;;4908484;29;20449;-77
2023/05/01 11:11:42;;;;;;;0.60;0.10;;;18.80;99.90;;;;;;4901567;29;20882;-76
2023/05/01 11:14:10;;;;;;;0.60;0.20;;;18.80;99.90;;;;;;4900783;29;20949;-76
2023/05/01 11:16:45;;;;;;;0.60;0.10;;;18.90;99.90;;;;;;4918483;29;20483;-77
2023/05/01 11:19:49;;;;;;;0.77;0.43;;;18.90;99.90;;;;;;4904746;29;20507;-77
2023/05/01 11:22:18;;;;;;;0.60;0.10;;;18.80;99.90;;;;;;4908292;29;20449;-77
2023/05/01 11:24:46;;;;;;;4.93;4.13;;;18.80;99.90;;;;;;4906286;29;20539;-77
2023/05/01 11:27:15;;;;;;;3.13;2.83;;;18.80;99.90;;;;;;4920146;29;20555;-77
2023/05/01 11:29:48;;;;;;;2.73;2.63;;;18.80;99.90;;;;;;4932179;29;20489;-77
2023/05/01 11:32:19;;;;;;;0.87;0.70;;;19.20;99.90;;;;;;4936952;29;20481;-77
2023/05/01 11:34:50;;;;;;;0.93;0.83;;;19.10;99.90;;;;;;4932348;29;20476;-76
2023/05/01 11:37:17;;;;;;;0.60;0.30;;;19.10;99.90;;;;;;4910207;29;20481;-77
2023/05/01 11:39:50;;;;;;;0.60;0.20;;;19.00;99.90;;;;;;4909831;29;20463;-77
2023/05/01 11:42:22;;;;;;;1.33;0.70;;;19.00;99.90;;;;;;4904429;29;20461;-77
2023/05/01 11:45:06;;;;;;;0.60;0.20;;;19.00;99.90;;;;;;4904821;29;20568;-77
2023/05/01 11:47:36;;;;;;;0.60;0.10;;;19.10;99.90;;;;;;4905734;29;20541;-77
2023/05/01 11:50:05;;;;;;;1.40;0.50;;;19.10;99.40;;;;;;4911365;29;20456;-75
2023/05/01 11:52:42;;;;;;;0.60;0.20;;;;;;;;;;4910683;29;20454;-76
2023/05/01 11:55:11;;;;;;;0.70;0.47;;;19.20;99.90;;;;;;4906897;29;20467;-76
2023/05/01 11:57:50;;;;;;;0.60;0.10;;;19.20;99.90;;;;;;4908842;29;20481;-77
2023/05/01 12:00:28;;;;;;;0.60;0.10;;;19.20;99.90;;;;;;4927311;29;20456;-75
2023/05/01 12:03:02;;;;;;;0.60;0.20;;;19.40;99.90;;;;;;4930248;29;20460;-76
2023/05/01 12:05:31;;;;;;;0.90;0.43;;;19.40;99.90;;;;;;4932019;29;20459;-78
2023/05/01 12:08:14;;;;;;;0.60;0.20;;;19.50;99.90;;;;;;4935942;29;20468;-77
2023/05/01 12:10:43;;;;;;;0.60;0.10;;;19.60;99.90;;;;;;4934175;29;20485;-77
2023/05/01 12:13:13;;;;;;;0.60;0.10;;;19.70;99.80;;;;;;4931270;29;20450;-76
2023/05/01 12:15:43;;;;;;;0.60;0.10;;;19.70;99.70;;;;;;4913308;29;20472;-80
2023/05/01 12:18:14;;;;;;;0.60;0.13;;;19.90;99.00;;;;;;4905743;29;20456;-76
2023/05/01 12:20:44;;;;;;;0.60;0.10;;;20.00;99.90;;;;;;4906322;29;20453;-77
2023/05/01 12:23:14;;;;;;;0.60;0.10;;;19.90;99.00;;;;;;4903389;29;20531;-77
2023/05/01 12:25:43;;;;;;;0.60;0.10;;;19.80;97.50;;;;;;4907530;29;20453;-77
2023/05/01 12:28:14;;;;;;;0.60;0.13;;;19.80;97.30;;;;;;4919563;29;20511;-77
2023/05/01 12:30:44;;;;;;;0.60;0.10;;;19.80;97.80;;;;;;4914730;29;20496;-76
2023/05/01 12:33:15;;;;;;;0.60;0.20;;;19.80;98.60;;;;;;4919163;29;20452;-77
2023/05/01 12:35:45;;;;;;;3.67;3.47;;;19.90;98.00;;;;;;4920734;29;20867;-76
2023/05/01 12:38:14;;;;;;;0.60;0.20;;;19.90;97.10;;;;;;4919047;29;20540;-76
2023/05/01 12:40:53;;;;;;;0.60;0.23;;;19.90;99.10;;;;;;4920366;29;21021;-78
2023/05/01 12:43:21;;;;;;;0.60;0.10;;;;;;;;;;4921547;29;20449;-77
2023/05/01 12:45:53;;;;;;;1.93;0.43;;;20.00;96.60;;;;;;4922791;29;20470;-77
2023/05/01 12:48:23;;;;;;;0.70;0.40;;;20.00;99.90;;;;;;4921775;29;20487;-77
2023/05/01 12:50:53;;;;;;;0.60;0.10;;;19.90;96.40;;;;;;4905813;29;20486;-79
2023/05/01 12:53:23;;;;;;;0.60;0.20;;;20.00;99.90;;;;;;4903889;29;20536;-76
2023/05/01 12:55:52;;;;;;;0.60;0.13;;;20.00;96.20;;;;;;4903060;29;20457;-77
2023/05/01 12:58:20;;;;;;;0.60;0.30;;;19.90;95.30;;;;;;4905579;29;20453;-77
2023/05/01 13:00:50;;;;;;;0.70;0.30;;;20.00;96.50;;;;;;4903962;29;20449;-77
2023/05/01 13:03:24;;;;;;;0.60;0.10;;;20.10;96.60;;;;;;4913249;29;20799;-76
2023/05/01 13:05:55;;;;;;;0.80;0.23;;;20.20;95.60;;;;;;4917737;29;20515;-76
2023/05/01 13:08:27;;;;;;;0.77;0.30;;;20.30;94.70;;;;;;4920705;29;20536;-78
2023/05/01 13:10:56;;;;;;;0.63;0.30;;;20.20;94.10;;;;;;4923138;29;20488;-76
2023/05/01 13:13:29;;;;;;;0.60;0.10;;;20.20;94.20;;;;;;4920140;29;20538;-76
2023/05/01 13:16:08;;;;;;;0.70;0.20;;;20.10;94.70;;;;;;4919847;29;20500;-76
2023/05/01 13:18:46;;;;;;;0.60;0.10;;;20.10;94.80;;;;;;4920296;29;20462;-75
2023/05/01 13:21:16;;;;;;;0.60;0.20;;;20.20;96.00;;;;;;4922061;29;20460;-76
2023/05/01 13:23:53;;;;;;;0.60;0.30;;;20.30;96.50;;;;;;4907520;29;20447;-76
2023/05/01 13:26:27;;;;;;;1.00;0.20;;;20.40;95.60;;;;;;4913519;29;20470;-74
2023/05/01 13:28:55;;;;;;;0.63;0.23;;;20.40;95.30;;;;;;4911585;29;20929;-77
2023/05/01 13:31:24;;;;;;;0.60;0.20;;;20.40;94.00;;;;;;4913866;29;20488;-77
2023/05/01 13:33:54;;;;;;;1.53;1.43;;;20.30;95.20;;;;;;4909527;29;20514;-77
2023/05/01 13:36:22;;;;;;;0.60;0.10;;;20.30;95.40;;;;;;4904950;29;20458;-76
2023/05/01 13:38:56;;;;;;;0.60;0.30;;;20.30;94.80;;;;;;4922793;29;20463;-78
2023/05/01 13:41:26;;;;;;;0.70;0.40;;;20.30;94.60;;;;;;4926997;29;20869;-73
2023/05/01 13:43:55;;;;;;;0.60;0.20;;;20.20;95.10;;;;;;4922311;29;20452;-75
2023/05/01 13:46:25;;;;;;;0.97;0.37;;;20.30;96.70;;;;;;4922443;29;20465;-78
2023/05/01 13:48:55;;;;;;;0.60;0.10;;;20.30;99.90;;;;;;4930075;29;20454;-76
2023/05/01 13:51:25;;;;;;;0.60;0.10;;;20.10;93.30;;;;;;4936253;29;20558;-76
2023/05/01 13:53:53;;;;;;;0.60;0.20;;;20.10;94.10;;;;;;4930666;29;21011;-78
2023/05/01 13:56:21;;;;;;;0.60;0.10;;;20.20;95.80;;;;;;4928788;29;20473;-78
2023/05/01 13:58:49;;;;;;;0.60;0.10;;;20.20;95.10;;;;;;4924683;29;20457;-79
2023/05/01 14:01:19;;;;;;;0.60;0.20;;;20.00;93.20;;;;;;4925436;29;20449;-78
2023/05/01 14:03:48;;;;;;;0.83;0.83;;;19.90;92.40;;;;;;4910730;29;20449;-76
2023/05/01 14:06:19;;;;;;;0.60;0.10;;;20.00;92.70;;;;;;4907175;29;20579;-78
2023/05/01 14:08:50;;;;;;;0.60;0.10;;;20.00;93.20;;;;;;4914538;29;20476;-78
2023/05/01 14:11:19;;;;;;;0.60;0.10;;;20.00;93.10;;;;;;4920491;29;20456;-77
2023/05/01 14:13:50;;;;;;;0.60;0.10;;;20.00;95.20;;;;;;4919739;29;20459;-78
2023/05/01 14:16:24;;;;;;;0.60;0.20;;;20.00;95.10;;;;;;4915426;29;20864;-75
2023/05/01 14:18:55;;;;;;;0.60;0.10;;;19.90;94.40;;;;;;4916508;29;20480;-78
2023/05/01 14:21:27;;;;;;;0.60;0.10;;;19.90;93.60;;;;;;4914454;29;20944;-80
2023/05/01 14:23:56;;;;;;;0.60;0.17;;;19.90;94.00;;;;;;4920841;29;20445;-78
2023/05/01 14:26:25;;;;;;;0.60;0.20;;;19.90;94.70;;;;;;4923977;29;20487;-79
2023/05/01 14:28:53;;;;;;;0.60;0.20;;;;;;;;;;4924722;29;20448;-81
2023/05/01 14:31:27;;;;;;;0.60;0.20;;;19.90;94.60;;;;;;4924330;29;21003;-78
2023/05/01 14:33:57;;;;;;;0.60;0.20;;;19.90;92.60;;;;;;4931314;29;20451;-80
2023/05/01 14:36:29;;;;;;;0.60;0.20;;;19.80;92.30;;;;;;4940471;29;20452;-81
2023/05/01 14:39:00;;;;;;;4.43;4.13;;;19.70;92.90;;;;;;4935209;29;20447;-80
2023/05/01 14:41:30;;;;;;;0.60;0.10;;;;;;;;;;4940102;29;20528;-79
2023/05/01 14:43:58;;;;;;;0.60;0.10;;;19.70;93.70;;;;;;4932375;29;20449;-84
2023/05/01 14:46:31;;;;;;;0.60;0.10;;;19.80;95.60;;;;;;4919468;29;20499;-80
2023/05/01 14:49:00;;;;;;;0.60;0.10;;;19.80;93.80;;;;;;4927164;29;20448;-79
2023/05/01 14:51:30;;;;;;;0.60;0.20;;;19.90;94.00;;;;;;4920910;29;20536;-86
2023/05/01 14:53:59;;;;;;;0.60;0.10;;;19.90;92.50;;;;;;4919432;29;20463;-73
2023/05/01 14:56:27;;;;;;;0.60;0.20;;;19.90;95.50;;;;;;4915601;29;20470;-74
2023/05/01 14:58:55;;;;;;;0.60;0.10;;;19.80;92.00;;;;;;4918828;29;21039;-74
2023/05/01 15:01:22;;;;;;;0.60;0.10;;;19.80;93.40;;;;;;4906031;29;20460;-74
2023/05/01 15:03:51;;;;;;;0.60;0.10;;;19.90;99.30;;;;;;4911404;29;20468;-76
2023/05/01 15:06:20;;;;;;;0.60;0.10;;;;;;;;;;4917203;29;20457;-75
2023/05/01 15:08:49;;;;;;;0.60;0.10;;;19.90;95.30;;;;;;4918099;29;20523;-78
2023/05/01 15:11:19;;;;;;;0.60;0.20;;;19.80;93.40;;;;;;4926665;29;20436;-75
2023/05/01 15:13:49;;;;;;;0.60;0.10;;;19.90;99.10;;;;;;4920249;29;20856;-77
2023/05/01 15:16:17;;;;;;;0.60;0.20;;;19.90;95.50;;;;;;4921937;29;20964;-78
2023/05/01 15:18:45;;;;;;;0.80;0.47;;;19.90;99.90;;;;;;4925761;29;20493;-76
2023/05/01 15:21:13;;;;;;;0.60;0.10;;;19.80;96.50;;;;;;4923069;29;21004;-80
2023/05/01 15:23:43;;;;;;;0.60;0.20;;;;;;;;;;4908859;29;20461;-78
2023/05/01 15:26:14;;;;;;;0.70;0.20;;;;;;;;;;4906809;29;20458;-78
2023/05/01 15:28:42;;;;;;;0.60;0.20;;;20.10;99.00;;;;;;4907538;29;20283;-81
2023/05/01 15:31:09;;;;;;;0.60;0.20;;;20.20;97.70;;;;;;4908374;29;20460;-78
2023/05/01 15:33:37;;;;;;;9.33;8.73;;;20.30;97.10;;;;;;4915394;29;20488;-77
2023/05/01 15:36:06;;;;;;;0.60;0.20;;;20.30;96.90;;;;;;4920313;29;20456;-74
2023/05/01 15:38:33;;;;;;;0.60;0.20;;;20.30;95.70;;;;;;4923365;29;20520;-77
2023/05/01 15:41:01;;;;;;;0.60;0.10;;;20.20;94.80;;;;;;4916838;29;20519;-77
2023/05/01 15:43:31;;;;;;;0.60;0.10;;;20.20;95.20;;;;;;4924281;29;20452;-77
2023/05/01 15:45:59;;;;;;;0.70;0.20;;;;;;;;;;4914258;29;20639;-76
2023/05/01 15:48:27;;;;;;;0.60;0.17;;;19.90;94.50;;;;;;4923309;29;20465;-77
2023/05/01 15:50:55;;;;;;;0.60;0.20;;;20.30;99.90;;;;;;4924606;29;20442;-77
2023/05/01 15:53:23;;;;;;;0.60;0.10;;;20.20;94.40;;;;;;4926283;29;20480;-77
2023/05/01 15:55:52;;;;;;;0.60;0.10;;;20.30;95.10;;;;;;4920338;29;20547;-78
2023/05/01 15:58:23;;;;;;;0.60;0.10;;;20.20;93.80;;;;;;4908908;29;20455;-77
2023/05/01 16:00:52;;;;;;;0.60;0.20;;;20.30;95.70;;;;;;4905652;29;20457;-78
2023/05/01 16:03:20;;;;;;;0.60;0.17;;;20.30;93.80;;;;;;4913384;29;20446;-77
2023/05/01 16:05:48;;;;;;;0.60;0.13;;;20.30;95.00;;;;;;4928846;29;20549;-77
2023/05/01 16:08:17;;;;;;;0.60;0.10;;;20.30;95.00;;;;;;4921831;29;20456;-77
2023/05/01 16:10:45;;;;;;;0.60;0.10;;;20.30;94.60;;;;;;4917266;29;20446;-77
2023/05/01 16:13:14;;;;;;;0.60;0.10;;;20.30;93.80;;;;;;4912081;29;20540;-82
2023/05/01 16:15:42;;;;;;;0.60;0.30;;;20.40;95.00;;;;;;4923424;29;20545;-76
2023/05/01 16:18:19;;;;;;;0.60;0.20;;;20.50;94.80;;;;;;4927216;23;20502;-79
2023/05/01 16:20:47;;;;;;;0.60;0.20;;;19.80;93.50;;;;;;4902766;29;20480;-78
2023/05/01 16:23:15;;;;;;;0.60;0.20;;;20.80;93.80;;;;;;4902583;29;20454;-78
2023/05/01 16:25:43;;;;;;;0.60;0.10;;;20.90;92.40;;;;;;4907965;29;20933;-77
2023/05/01 16:28:15;;;;;;;0.60;0.10;;;20.90;94.30;;;;;;4898499;29;20470;-78
2023/05/01 16:30:44;;;;;;;0.60;0.10;;;20.90;94.70;;;;;;4886766;29;20454;-78
2023/05/01 16:33:17;;;;;;;0.60;0.20;;;20.80;92.80;;;;;;4884588;29;20857;-79
2023/05/01 16:35:48;;;;;;;0.60;0.10;;;20.80;98.10;;;;;;4884216;29;20472;-78
2023/05/01 16:38:16;;;;;;;0.60;0.20;;;20.80;93.90;;;;;;4882351;29;20504;-78
2023/05/01 16:40:45;;;;;;;0.60;0.10;;;20.80;94.50;;;;;;4886257;29;20448;-79
2023/05/01 16:43:15;;;;;;;0.60;0.10;;;20.60;91.50;;;;;;4883445;29;20465;-77
2023/05/01 16:45:45;;;;;;;0.60;0.10;;;20.60;92.10;;;;;;4883073;29;20470;-78
2023/05/01 16:48:20;;;;;;;0.60;0.10;;;20.50;94.00;;;;;;4881931;29;20478;-78
2023/05/01 16:50:48;;;;;;;0.60;0.23;;;20.30;92.40;;;;;;4884229;29;20679;-78
2023/05/01 16:53:17;;;;;;;0.60;0.10;;;20.30;93.40;;;;;;4883200;29;20530;-79
2023/05/01 16:55:45;;;;;;;1.43;1.33;;;;;;;;;;4886357;29;20443;-78
2023/05/01 16:58:13;;;;;;;0.60;0.10;;;20.40;93.30;;;;;;4883922;29;20463;-79
2023/05/01 17:00:42;;;;;;;0.70;0.20;;;20.30;92.80;;;;;;4871940;29;20456;-79
2023/05/01 17:03:15;;;;;;;0.60;0.20;;;20.20;92.30;;;;;;4865774;29;20512;-79
2023/05/01 17:05:43;;;;;;;0.70;0.30;;;20.10;92.30;;;;;;4865052;29;21011;-78
2023/05/01 17:08:11;;;;;;;0.60;0.30;;;20.00;91.90;;;;;;4872332;29;20512;-80
2023/05/01 17:10:39;;;;;;;0.60;0.20;;;19.80;93.40;;;;;;4882141;29;20488;-78